createdAt,value
2019-05-01T00:01:19.190Z,6.97
2019-05-01T00:03:50.894Z,7.25
2019-05-01T00:06:28.467Z,4.97
2019-05-01T00:08:58.540Z,5.65
2019-05-01T00:11:28.509Z,7.53
2019-05-01T00:13:58.689Z,4.97
2019-05-01T00:16:28.659Z,4.90
2019-05-01T00:18:59.643Z,3.17
2019-05-01T00:21:29.634Z,4.30
2019-05-01T00:23:59.654Z,3.58
2019-05-01T00:26:29.689Z,2.62
2019-05-01T00:28:59.629Z,2.17
2019-05-01T00:31:29.549Z,4.40
2019-05-01T00:33:59.521Z,4.08
2019-05-01T00:36:29.521Z,3.10
2019-05-01T00:38:59.633Z,3.08
2019-05-01T00:41:31.217Z,4.40
2019-05-01T00:44:01.186Z,3.52
2019-05-01T00:46:31.193Z,2.22
2019-05-01T00:49:01.094Z,4.10
2019-05-01T00:51:31.030Z,2.65
2019-05-01T00:54:00.929Z,5.45
2019-05-01T00:56:50.234Z,5.53
2019-05-01T00:59:21.845Z,2.50
2019-05-01T01:02:01.981Z,2.65
2019-05-01T01:04:31.977Z,2.33
2019-05-01T01:07:01.813Z,2.65
2019-05-01T01:09:31.733Z,4.72
2019-05-01T01:12:01.610Z,2.65
2019-05-01T01:14:31.501Z,4.55
2019-05-01T01:17:01.504Z,6.45
2019-05-01T01:19:31.497Z,2.47
2019-05-01T01:22:01.474Z,2.10
2019-05-01T01:24:31.478Z,2.22
2019-05-01T01:27:01.481Z,3.02
2019-05-01T01:29:31.524Z,2.90
2019-05-01T01:32:01.449Z,4.78
2019-05-01T01:34:31.445Z,2.77
2019-05-01T01:37:01.445Z,3.52
2019-05-01T01:39:31.477Z,6.08
2019-05-01T01:42:01.567Z,4.92
2019-05-01T01:44:42.237Z,4.45
2019-05-01T01:47:12.338Z,4.78
2019-05-01T01:49:42.317Z,3.72
2019-05-01T01:52:13.012Z,3.25
2019-05-01T01:54:42.985Z,5.20
2019-05-01T01:57:14.065Z,2.10
2019-05-01T01:59:44.210Z,2.15
2019-05-01T02:02:15.852Z,2.92
2019-05-01T02:04:53.344Z,4.03
2019-05-01T02:07:23.490Z,3.60
2019-05-01T02:09:53.557Z,2.95
2019-05-01T02:12:23.656Z,3.20
2019-05-01T02:14:53.617Z,6.20
2019-05-01T02:17:23.613Z,3.42
2019-05-01T02:19:53.679Z,2.62
2019-05-01T02:22:23.677Z,2.90
2019-05-01T02:24:53.677Z,3.45
2019-05-01T02:27:25.586Z,2.12
2019-05-01T02:29:57.429Z,2.45
2019-05-01T02:32:29.146Z,2.60
2019-05-01T02:35:00.781Z,3.02
2019-05-01T02:37:32.295Z,3.42
2019-05-01T02:40:06.427Z,3.23
2019-05-01T02:42:39.345Z,3.67
2019-05-01T02:45:10.050Z,2.83
2019-05-01T02:47:42.389Z,2.80
2019-05-01T02:50:12.589Z,2.67
2019-05-01T02:52:44.161Z,3.95
2019-05-01T02:55:16.021Z,7.47
2019-05-01T02:57:46.698Z,4.22
2019-05-01T03:00:16.702Z,5.12
2019-05-01T03:02:47.167Z,7.87
2019-05-01T03:05:17.172Z,7.58
2019-05-01T03:07:47.353Z,6.05
2019-05-01T03:10:17.519Z,5.60
2019-05-01T03:12:50.082Z,6.60
2019-05-01T03:15:22.463Z,5.70
2019-05-01T03:17:54.266Z,6.17
2019-05-01T03:20:25.995Z,8.83
2019-05-01T03:23:13.774Z,7.10
2019-05-01T03:25:44.935Z,10.08
2019-05-01T03:28:15.075Z,8.90
2019-05-01T03:30:45.016Z,7.80
2019-05-01T03:33:15.015Z,9.05
2019-05-01T03:35:44.986Z,11.65
2019-05-01T03:38:15.192Z,6.55
2019-05-01T03:40:45.237Z,8.55
2019-05-01T03:43:15.338Z,7.17
2019-05-01T03:45:45.442Z,7.28
2019-05-01T03:48:15.622Z,7.75
2019-05-01T03:50:47.067Z,7.30
2019-05-01T03:53:17.998Z,12.73
2019-05-01T03:55:48.370Z,7.42
2019-05-01T03:58:19.169Z,7.05
2019-05-01T04:00:50.870Z,7.92
2019-05-01T04:03:22.714Z,6.05
2019-05-01T04:05:53.011Z,6.58
2019-05-01T04:08:23.087Z,4.92
2019-05-01T04:10:54.219Z,6.50
2019-05-01T04:13:24.319Z,5.25
2019-05-01T04:15:54.798Z,10.40
2019-05-01T04:18:25.646Z,8.28
2019-05-01T04:20:56.130Z,4.87
2019-05-01T04:23:26.333Z,5.58
2019-05-01T04:25:56.297Z,7.35
2019-05-01T04:28:37.135Z,5.95
2019-05-01T04:31:11.875Z,5.80
2019-05-01T04:33:43.607Z,7.72
2019-05-01T04:36:21.233Z,7.10
2019-05-01T04:38:51.409Z,4.67
2019-05-01T04:41:21.512Z,5.75
2019-05-01T04:43:51.540Z,5.72
2019-05-01T04:46:21.626Z,7.35
2019-05-01T04:48:51.610Z,7.25
2019-05-01T04:51:22.081Z,4.22
2019-05-01T04:53:52.048Z,4.60
2019-05-01T04:56:22.355Z,4.28
2019-05-01T04:58:52.776Z,4.60
2019-05-01T05:01:22.877Z,5.33
2019-05-01T05:03:52.958Z,4.47
2019-05-01T05:06:22.961Z,3.80
2019-05-01T05:08:52.925Z,5.62
2019-05-01T05:11:27.550Z,6.03
2019-05-01T05:14:13.929Z,2.90
2019-05-01T05:16:51.787Z,3.60
2019-05-01T05:19:21.857Z,3.15
2019-05-01T05:21:52.433Z,4.50
2019-05-01T05:24:23.401Z,2.60
2019-05-01T05:26:53.878Z,3.47
2019-05-01T05:29:24.632Z,3.27
2019-05-01T05:31:56.480Z,3.47
2019-05-01T05:34:27.433Z,4.70
2019-05-01T05:37:00.138Z,3.60
2019-05-01T05:39:33.482Z,3.77
2019-05-01T05:44:35.285Z,4.90
2019-05-01T05:47:05.753Z,3.42
2019-05-01T05:49:36.071Z,2.65
2019-05-01T05:52:11.755Z,2.70
2019-05-01T05:54:47.872Z,2.85
2019-05-01T05:57:24.506Z,3.70
2019-05-01T06:00:03.665Z,2.83
2019-05-01T06:02:49.633Z,5.70
2019-05-01T06:05:26.808Z,2.77
2019-05-01T06:08:16.242Z,3.83
2019-05-01T06:11:05.621Z,4.72
2019-05-01T06:13:56.887Z,6.83
2019-05-01T06:16:46.782Z,4.85
2019-05-01T06:19:16.369Z,2.00
2019-05-01T06:21:59.136Z,3.15
2019-05-01T06:24:44.493Z,2.70
2019-05-01T06:27:15.100Z,4.30
2019-05-01T06:29:46.281Z,3.27
2019-05-01T06:32:16.213Z,4.28
2019-05-01T06:34:46.313Z,2.65
2019-05-01T06:37:16.400Z,2.40
2019-05-01T06:39:48.133Z,4.30
2019-05-01T06:42:19.900Z,1.70
2019-05-01T06:44:54.741Z,2.45
2019-05-01T06:47:42.769Z,4.12
2019-05-01T06:50:14.622Z,3.45
2019-05-01T06:52:44.854Z,2.85
2019-05-01T06:55:14.929Z,4.87
2019-05-01T06:57:45.650Z,3.87
2019-05-01T07:00:17.173Z,3.72
2019-05-01T07:02:50.145Z,2.50
2019-05-01T07:05:21.887Z,3.62
2019-05-01T07:07:55.007Z,4.00
2019-05-01T07:10:31.480Z,2.62
2019-05-01T07:13:04.960Z,3.10
2019-05-01T07:15:33.289Z,3.12
2019-05-01T07:18:03.857Z,2.92
2019-05-01T07:20:35.678Z,3.55
2019-05-01T07:23:06.221Z,3.15
2019-05-01T07:25:39.489Z,2.67
2019-05-01T07:28:07.817Z,3.60
2019-05-01T07:30:41.455Z,3.02
2019-05-01T07:35:42.850Z,4.20
2019-05-01T07:38:12.921Z,4.90
2019-05-01T07:40:43.337Z,4.97
2019-05-01T07:43:19.020Z,3.77
2019-05-01T07:45:54.679Z,4.53
2019-05-01T07:48:41.297Z,4.30
2019-05-01T07:51:08.976Z,6.30
2019-05-01T07:53:39.997Z,2.92
2019-05-01T07:56:10.454Z,7.22
2019-05-01T07:58:40.445Z,2.02
2019-05-01T08:01:19.985Z,3.08
2019-05-01T08:03:49.773Z,6.33
2019-05-01T08:06:21.691Z,7.03
2019-05-01T08:08:51.466Z,5.85
2019-05-01T08:11:21.361Z,5.40
2019-05-01T08:13:51.380Z,5.97
2019-05-01T08:16:21.457Z,5.22
2019-05-01T08:18:53.139Z,6.67
2019-05-01T08:21:26.035Z,6.83
2019-05-01T08:23:56.461Z,4.28
2019-05-01T08:26:26.406Z,4.20
2019-05-01T08:29:06.821Z,4.00
2019-05-01T08:31:53.553Z,8.13
2019-05-01T08:34:30.929Z,5.83
2019-05-01T08:37:01.009Z,4.22
2019-05-01T08:39:30.977Z,5.30
2019-05-01T08:42:02.935Z,4.67
2019-05-01T08:44:34.334Z,5.65
2019-05-01T08:47:25.916Z,5.67
2019-05-01T08:49:58.489Z,6.28
2019-05-01T08:52:28.611Z,8.20
2019-05-01T08:54:58.617Z,7.78
2019-05-01T08:57:29.074Z,6.25
2019-05-01T09:00:01.523Z,6.47
2019-05-01T09:02:36.634Z,6.70
2019-05-01T09:05:07.136Z,7.12
2019-05-01T09:07:37.543Z,6.25
2019-05-01T09:10:09.304Z,9.65
2019-05-01T09:12:42.517Z,8.18
2019-05-01T09:15:14.363Z,9.05
2019-05-01T09:17:43.943Z,11.20
2019-05-01T09:20:16.707Z,11.10
2019-05-01T09:22:46.609Z,8.60
2019-05-01T09:25:18.141Z,9.05
2019-05-01T09:27:49.709Z,9.03
2019-05-01T09:30:21.966Z,9.08
2019-05-01T09:32:54.473Z,8.13
2019-05-01T09:35:24.949Z,7.30
2019-05-01T09:37:54.893Z,10.72
2019-05-01T09:40:24.866Z,9.33
2019-05-01T09:42:59.271Z,9.93
2019-05-01T09:45:26.554Z,6.60
2019-05-01T09:47:56.766Z,8.88
2019-05-01T09:50:30.450Z,9.85
2019-05-01T09:53:05.819Z,7.50
2019-05-01T09:55:46.328Z,7.92
2019-05-01T09:58:16.374Z,8.45
2019-05-01T10:00:48.842Z,8.78
2019-05-01T10:03:18.363Z,8.73
2019-05-01T10:05:48.417Z,11.33
2019-05-01T10:08:19.417Z,8.00
2019-05-01T10:10:49.565Z,9.00
2019-05-01T10:13:22.436Z,7.17
2019-05-01T10:15:51.261Z,12.50
2019-05-01T10:18:21.269Z,8.85
2019-05-01T10:20:51.169Z,10.05
2019-05-01T10:23:21.112Z,7.37
2019-05-01T10:25:53.610Z,9.28
2019-05-01T10:28:25.299Z,9.30
2019-05-01T10:30:57.745Z,11.65
2019-05-01T10:33:32.718Z,10.15
2019-05-01T10:38:40.000Z,8.50
2019-05-01T10:41:10.587Z,9.78
2019-05-01T10:43:40.680Z,11.30
2019-05-01T10:46:10.597Z,9.65
2019-05-01T10:48:40.498Z,10.23
2019-05-01T10:51:10.514Z,11.10
2019-05-01T10:53:43.165Z,9.68
2019-05-01T10:56:12.114Z,11.22
2019-05-01T10:58:43.487Z,12.03
2019-05-01T11:01:15.740Z,9.18
2019-05-01T11:03:45.821Z,8.00
2019-05-01T11:06:15.812Z,7.97
2019-05-01T11:08:45.733Z,5.10
2019-05-01T11:11:15.771Z,6.42
2019-05-01T11:13:45.754Z,9.83
2019-05-01T11:16:15.789Z,7.97
2019-05-01T11:18:45.793Z,6.72
2019-05-01T11:21:15.708Z,7.35
2019-05-01T11:23:46.673Z,5.92
2019-05-01T11:26:16.652Z,6.85
2019-05-01T11:28:46.603Z,6.67
2019-05-01T11:31:18.243Z,6.17
2019-05-01T11:33:58.821Z,6.85
2019-05-01T11:36:33.143Z,8.35
2019-05-01T11:39:13.721Z,9.28
2019-05-01T11:41:45.360Z,9.58
2019-05-01T11:44:15.325Z,6.20
2019-05-01T11:46:45.343Z,7.05
2019-05-01T11:49:15.382Z,6.97
2019-05-01T11:51:45.362Z,10.85
2019-05-01T11:54:15.437Z,7.42
2019-05-01T11:56:46.331Z,8.33
2019-05-01T11:59:16.372Z,9.65
2019-05-01T12:01:46.392Z,5.90
2019-05-01T12:04:16.361Z,21.25
2019-05-01T12:06:46.378Z,10.68
2019-05-01T12:09:16.450Z,8.63
2019-05-01T12:11:48.089Z,8.58
2019-05-01T12:14:18.025Z,6.40
2019-05-01T12:16:55.699Z,8.75
2019-05-01T12:19:32.853Z,8.35
2019-05-01T12:22:02.817Z,7.75
2019-05-01T12:24:32.891Z,8.13
2019-05-01T12:27:02.821Z,9.70
2019-05-01T12:29:32.681Z,8.80
2019-05-01T12:32:02.665Z,9.45
2019-05-01T12:34:32.606Z,7.33
2019-05-01T12:37:16.104Z,8.60
2019-05-01T12:39:46.450Z,5.00
2019-05-01T12:42:18.059Z,11.08
2019-05-01T12:44:47.989Z,8.40
2019-05-01T12:47:19.599Z,9.13
2019-05-01T12:49:51.323Z,8.30
2019-05-01T12:52:25.654Z,9.15
2019-05-01T12:54:57.225Z,5.62
2019-05-01T12:57:27.222Z,8.48
2019-05-01T13:00:08.182Z,6.50
2019-05-01T13:02:28.910Z,8.15
2019-05-01T13:04:58.805Z,8.20
2019-05-01T13:07:29.171Z,5.80
2019-05-01T13:09:59.677Z,6.40
2019-05-01T13:12:29.690Z,8.13
2019-05-01T13:14:59.590Z,5.53
2019-05-01T13:17:29.417Z,8.83
2019-05-01T13:19:59.361Z,5.08
2019-05-01T13:22:29.284Z,6.33
2019-05-01T13:24:59.219Z,8.63
2019-05-01T13:27:39.313Z,7.10
2019-05-01T13:30:16.492Z,5.87
2019-05-01T13:32:51.803Z,5.83
2019-05-01T13:35:21.775Z,7.65
2019-05-01T13:37:51.702Z,6.55
2019-05-01T13:40:21.918Z,4.10
2019-05-01T13:42:51.893Z,14.55
2019-05-01T13:45:21.870Z,8.20
2019-05-01T13:47:54.292Z,7.05
2019-05-01T13:50:23.950Z,7.72
2019-05-01T13:52:53.952Z,6.92
2019-05-01T13:55:23.925Z,6.25
2019-05-01T13:57:53.869Z,6.85
2019-05-01T14:00:25.581Z,9.98
2019-05-01T14:02:55.653Z,7.10
2019-05-01T14:05:25.629Z,8.23
2019-05-01T14:07:55.633Z,7.53
2019-05-01T14:10:25.730Z,6.97
2019-05-01T14:12:55.805Z,6.40
2019-05-01T14:15:25.808Z,6.35
2019-05-01T14:17:55.681Z,6.40
2019-05-01T14:20:30.078Z,9.58
2019-05-01T14:23:01.615Z,6.10
2019-05-01T14:25:49.566Z,7.28
2019-05-01T14:28:19.697Z,6.35
2019-05-01T14:30:49.634Z,9.93
2019-05-01T14:33:19.537Z,10.08
2019-05-01T14:35:49.545Z,7.20
2019-05-01T14:38:20.413Z,8.25
2019-05-01T14:40:50.414Z,6.50
2019-05-01T14:43:20.417Z,5.35
2019-05-01T14:45:50.409Z,10.82
2019-05-01T14:48:20.384Z,11.63
2019-05-01T14:50:50.326Z,7.92
2019-05-01T14:53:20.222Z,8.50
2019-05-01T14:55:50.229Z,5.92
2019-05-01T14:58:20.250Z,11.05
2019-05-01T15:00:50.226Z,9.98
2019-05-01T15:03:20.153Z,7.53
2019-05-01T15:05:50.159Z,9.28
2019-05-01T15:08:20.125Z,8.03
2019-05-01T15:10:50.209Z,8.55
2019-05-01T15:13:21.820Z,8.80
2019-05-01T15:15:53.398Z,8.68
2019-05-01T15:18:24.946Z,9.08
2019-05-01T15:20:54.941Z,7.30
2019-05-01T15:23:24.845Z,7.30
2019-05-01T15:25:54.954Z,9.00
2019-05-01T15:28:24.921Z,9.85
2019-05-01T15:30:54.861Z,6.58
2019-05-01T15:33:24.844Z,8.68
2019-05-01T15:35:54.804Z,10.05
2019-05-01T15:38:24.639Z,5.80
2019-05-01T15:41:02.338Z,6.15
2019-05-01T15:43:39.753Z,4.62
2019-05-01T15:46:09.622Z,6.25
2019-05-01T15:48:39.543Z,7.58
2019-05-01T15:51:09.545Z,4.90
2019-05-01T15:53:39.453Z,5.47
2019-05-01T15:56:09.396Z,5.30
2019-05-01T15:58:39.224Z,7.97
2019-05-01T16:01:09.301Z,12.05
2019-05-01T16:03:39.137Z,11.83
2019-05-01T16:06:09.150Z,9.83
2019-05-01T16:08:39.057Z,5.37
2019-05-01T16:11:22.697Z,5.97
2019-05-01T16:13:52.746Z,4.97
2019-05-01T16:16:22.749Z,4.05
2019-05-01T16:18:52.720Z,5.22
2019-05-01T16:21:22.584Z,6.50
2019-05-01T16:23:52.506Z,5.92
2019-05-01T16:26:22.409Z,5.03
2019-05-01T16:28:52.417Z,4.70
2019-05-01T16:31:22.258Z,3.87
2019-05-01T16:33:52.261Z,4.30
2019-05-01T16:36:22.189Z,6.10
2019-05-01T16:39:10.153Z,4.70
2019-05-01T16:41:40.401Z,4.05
2019-05-01T16:44:10.414Z,6.62
2019-05-01T16:46:40.322Z,4.28
2019-05-01T16:49:10.297Z,5.03
2019-05-01T16:51:40.237Z,5.65
2019-05-01T16:54:11.448Z,8.08
2019-05-01T16:56:41.352Z,6.60
2019-05-01T16:59:11.212Z,6.45
2019-05-01T17:01:42.749Z,8.38
2019-05-01T17:04:26.208Z,7.55
2019-05-01T17:09:50.086Z,9.20
2019-05-01T17:12:25.361Z,10.80
2019-05-01T17:14:56.416Z,11.85
2019-05-01T17:17:27.085Z,9.43
2019-05-01T17:19:57.229Z,10.25
2019-05-01T17:22:27.258Z,11.83
2019-05-01T17:24:59.096Z,13.83
2019-05-01T17:27:30.622Z,14.85
2019-05-01T17:30:00.742Z,14.98
2019-05-01T17:32:30.839Z,13.70
2019-05-01T17:35:01.842Z,13.00
2019-05-01T17:37:32.760Z,13.53
2019-05-01T17:40:04.045Z,13.22
2019-05-01T17:42:37.630Z,14.87
2019-05-01T17:45:07.385Z,12.15
2019-05-01T17:47:37.477Z,15.30
2019-05-01T17:50:07.728Z,13.20
2019-05-01T17:52:37.878Z,11.90
2019-05-01T17:55:08.161Z,15.38
2019-05-01T17:57:38.265Z,10.78
2019-05-01T18:00:26.197Z,11.00
2019-05-01T18:03:15.877Z,14.50
2019-05-01T18:05:47.897Z,14.20
2019-05-01T18:08:17.929Z,14.83
2019-05-01T18:10:47.969Z,12.73
2019-05-01T18:13:17.989Z,15.83
2019-05-01T18:15:47.970Z,13.45
2019-05-01T18:18:18.014Z,12.68
2019-05-01T18:20:48.037Z,12.58
2019-05-01T18:23:35.677Z,13.15
2019-05-01T18:26:10.356Z,13.85
2019-05-01T18:29:00.940Z,12.75
2019-05-01T18:31:32.022Z,8.25
2019-05-01T18:34:04.525Z,11.18
2019-05-01T18:36:55.035Z,11.63
2019-05-01T18:39:36.391Z,13.05
2019-05-01T18:42:13.399Z,13.20
2019-05-01T18:44:42.466Z,13.88
2019-05-01T18:47:13.034Z,13.48
2019-05-01T18:49:43.120Z,14.35
2019-05-01T18:52:13.212Z,19.27
2019-05-01T18:54:43.191Z,17.07
2019-05-01T18:57:13.283Z,14.07
2019-05-01T18:59:43.365Z,13.20
2019-05-01T19:02:20.510Z,14.70
2019-05-01T19:04:48.140Z,13.43
2019-05-01T19:07:18.149Z,13.43
2019-05-01T19:09:48.247Z,13.85
2019-05-01T19:12:18.438Z,15.18
2019-05-01T19:14:48.439Z,14.33
2019-05-01T19:17:18.498Z,15.00
2019-05-01T19:19:49.704Z,16.32
2019-05-01T19:22:19.795Z,18.40
2019-05-01T19:24:49.809Z,17.67
2019-05-01T19:27:21.229Z,11.80
2019-05-01T19:29:51.653Z,17.37
2019-05-01T19:32:21.870Z,18.55
2019-05-01T19:34:51.859Z,14.43
2019-05-01T19:37:23.692Z,13.85
2019-05-01T19:39:54.963Z,9.53
2019-05-01T19:42:25.165Z,11.28
2019-05-01T19:44:56.285Z,13.78
2019-05-01T19:47:27.150Z,10.28
2019-05-01T19:50:06.706Z,9.53
2019-05-01T19:52:32.498Z,11.15
2019-05-01T19:55:06.460Z,10.88
2019-05-01T19:57:35.789Z,9.40
2019-05-01T20:00:07.539Z,8.88
2019-05-01T20:02:38.398Z,13.72
2019-05-01T20:05:11.177Z,12.82
2019-05-01T20:07:41.366Z,9.90
2019-05-01T20:10:12.022Z,10.65
2019-05-01T20:12:42.130Z,10.93
2019-05-01T20:15:12.459Z,10.35
2019-05-01T20:17:42.457Z,7.97
2019-05-01T20:20:12.517Z,11.28
2019-05-01T20:22:42.603Z,8.65
2019-05-01T20:25:14.620Z,10.45
2019-05-01T20:27:47.767Z,11.50
2019-05-01T20:30:16.331Z,13.32
2019-05-01T20:32:46.410Z,10.13
2019-05-01T20:35:16.469Z,11.03
2019-05-01T20:37:46.594Z,11.15
2019-05-01T20:40:16.750Z,10.58
2019-05-01T20:42:46.825Z,8.30
2019-05-01T20:45:18.194Z,12.18
2019-05-01T20:47:48.701Z,13.00
2019-05-01T20:50:18.922Z,13.00
2019-05-01T20:52:49.107Z,11.50
2019-05-01T20:55:19.210Z,10.70
2019-05-01T20:57:50.052Z,11.70
2019-05-01T21:00:21.980Z,15.43
2019-05-01T21:02:52.091Z,7.75
2019-05-01T21:05:23.626Z,14.30
2019-05-01T21:07:58.994Z,12.20
2019-05-01T21:10:34.353Z,11.93
2019-05-01T21:13:06.153Z,10.05
2019-05-01T21:15:36.386Z,12.82
2019-05-01T21:18:06.461Z,12.13
2019-05-01T21:20:36.530Z,11.08
2019-05-01T21:23:10.464Z,9.43
2019-05-01T21:25:38.217Z,11.22
2019-05-01T21:28:08.257Z,12.25
2019-05-01T21:30:38.737Z,12.63
2019-05-01T21:33:11.901Z,11.35
2019-05-01T21:35:44.458Z,11.22
2019-05-01T21:38:14.391Z,9.33
2019-05-01T21:40:44.462Z,9.25
2019-05-01T21:43:14.406Z,11.40
2019-05-01T21:45:44.418Z,11.73
2019-05-01T21:48:14.338Z,13.75
2019-05-01T21:50:44.291Z,10.18
2019-05-01T21:53:14.293Z,11.53
2019-05-01T21:55:44.299Z,12.73
2019-05-01T21:58:15.323Z,8.38
2019-05-01T22:00:45.890Z,10.85
2019-05-01T22:03:16.745Z,10.10
2019-05-01T22:05:47.717Z,10.85
2019-05-01T22:08:17.721Z,11.50
2019-05-01T22:10:52.095Z,11.28
2019-05-01T22:13:20.339Z,11.97
2019-05-01T22:15:53.110Z,11.40
2019-05-01T22:18:24.754Z,13.53
2019-05-01T22:20:56.495Z,18.12
2019-05-01T22:23:30.886Z,9.88
2019-05-01T22:26:01.568Z,11.95
2019-05-01T22:28:33.197Z,10.10
2019-05-01T22:31:21.681Z,16.55
2019-05-01T22:33:53.302Z,9.53
2019-05-01T22:36:23.396Z,10.78
2019-05-01T22:38:53.431Z,6.83
2019-05-01T22:41:23.510Z,9.38
2019-05-01T22:43:53.490Z,10.98
2019-05-01T22:46:25.149Z,9.38
2019-05-01T22:48:55.230Z,11.38
2019-05-01T22:51:26.384Z,10.70
2019-05-01T22:53:56.563Z,11.30
2019-05-01T22:56:26.594Z,12.37
2019-05-01T22:58:57.801Z,8.43
2019-05-01T23:01:29.296Z,11.93
2019-05-01T23:04:01.002Z,15.95
2019-05-01T23:06:31.039Z,13.10
2019-05-01T23:09:01.029Z,13.10
2019-05-01T23:11:34.341Z,11.20
2019-05-01T23:14:04.402Z,11.28
2019-05-01T23:16:36.243Z,9.90
2019-05-01T23:19:06.205Z,8.78
2019-05-01T23:21:36.136Z,9.70
2019-05-01T23:24:06.448Z,8.48
2019-05-01T23:26:36.460Z,11.38
2019-05-01T23:29:06.429Z,8.93
2019-05-01T23:31:36.450Z,10.82
2019-05-01T23:34:06.493Z,7.92
2019-05-01T23:36:37.484Z,11.00
2019-05-01T23:39:08.117Z,10.15
2019-05-01T23:41:45.626Z,9.98
2019-05-01T23:44:09.760Z,11.48
2019-05-01T23:46:39.602Z,12.95
2019-05-01T23:49:09.537Z,11.75
2019-05-01T23:51:39.517Z,12.85
2019-05-01T23:54:09.534Z,10.32
2019-05-01T23:56:39.485Z,12.18
2019-05-01T23:59:09.425Z,12.28
